createdAt,value
2022-08-25T00:00:14.112Z,24.74
2022-08-25T00:02:43.794Z,24.67
2022-08-25T00:05:26.417Z,24.69
2022-08-25T00:07:55.564Z,24.68
2022-08-25T00:10:22.924Z,24.68
2022-08-25T00:12:50.238Z,24.59
2022-08-25T00:15:17.845Z,24.70
2022-08-25T00:17:45.480Z,24.54
2022-08-25T00:20:12.915Z,24.53
2022-08-25T00:22:40.719Z,24.56
2022-08-25T00:25:09.769Z,24.56
2022-08-25T00:27:37.421Z,24.71
2022-08-25T00:30:06.181Z,24.52
2022-08-25T00:32:33.526Z,24.61
2022-08-25T00:35:01.028Z,24.60
2022-08-25T00:37:28.529Z,24.51
2022-08-25T00:39:57.139Z,24.51
2022-08-25T00:42:25.181Z,24.53
2022-08-25T00:44:53.010Z,24.60
2022-08-25T00:47:20.388Z,24.62
2022-08-25T00:49:59.637Z,24.73
2022-08-25T00:52:33.980Z,24.68
2022-08-25T00:55:08.065Z,24.59
2022-08-25T00:57:49.999Z,24.60
2022-08-25T01:00:20.719Z,24.55
2022-08-25T01:02:48.143Z,24.48
2022-08-25T01:05:15.636Z,24.52
2022-08-25T01:07:44.625Z,24.40
2022-08-25T01:10:13.516Z,24.40
2022-08-25T01:12:41.787Z,24.41
2022-08-25T01:15:12.076Z,24.34
2022-08-25T01:17:54.754Z,24.34
2022-08-25T01:20:29.361Z,24.41
2022-08-25T01:22:57.571Z,24.41
2022-08-25T01:25:43.453Z,24.42
2022-08-25T01:28:11.306Z,24.35
2022-08-25T01:30:39.336Z,24.32
2022-08-25T01:33:09.480Z,24.29
2022-08-25T01:35:37.463Z,24.28
2022-08-25T01:38:07.111Z,24.29
2022-08-25T01:40:36.374Z,24.23
2022-08-25T01:43:06.446Z,24.24
2022-08-25T01:45:35.404Z,24.27
2022-08-25T01:48:05.190Z,24.22
2022-08-25T01:50:33.594Z,24.11
2022-08-25T01:53:09.694Z,23.97
2022-08-25T01:55:54.223Z,23.85
2022-08-25T01:58:23.016Z,23.87
2022-08-25T02:00:52.009Z,23.70
2022-08-25T02:03:19.986Z,23.64
2022-08-25T02:05:48.075Z,23.49
2022-08-25T02:08:16.139Z,23.63
2022-08-25T02:10:43.941Z,23.93
2022-08-25T02:13:12.780Z,23.73
2022-08-25T02:15:44.642Z,23.64
2022-08-25T02:18:12.975Z,23.62
2022-08-25T02:20:40.527Z,23.61
2022-08-25T02:23:08.115Z,23.65
2022-08-25T02:25:37.647Z,23.74
2022-08-25T02:28:05.380Z,23.73
2022-08-25T02:30:33.010Z,23.62
2022-08-25T02:33:00.470Z,23.63
2022-08-25T02:35:27.927Z,23.76
2022-08-25T02:37:55.828Z,23.84
2022-08-25T02:40:23.625Z,23.94
2022-08-25T02:42:51.657Z,23.97
2022-08-25T02:45:19.276Z,23.88
2022-08-25T02:47:48.102Z,23.76
2022-08-25T02:50:15.600Z,23.88
2022-08-25T02:52:43.443Z,23.92
2022-08-25T02:55:14.147Z,23.88
2022-08-25T02:57:42.140Z,23.82
2022-08-25T03:00:12.858Z,23.67
2022-08-25T03:02:41.436Z,23.75
2022-08-25T03:05:10.648Z,23.73
2022-08-25T03:07:38.645Z,23.75
2022-08-25T03:10:14.718Z,23.75
2022-08-25T03:12:42.641Z,23.68
2022-08-25T03:15:12.862Z,23.55
2022-08-25T03:17:40.929Z,23.51
2022-08-25T03:20:13.607Z,23.55
2022-08-25T03:22:41.502Z,23.64
2022-08-25T03:25:27.627Z,23.62
2022-08-25T03:27:55.067Z,23.66
2022-08-25T03:30:22.453Z,23.61
2022-08-25T03:32:50.038Z,23.51
2022-08-25T03:35:18.150Z,23.58
2022-08-25T03:37:45.882Z,23.43
2022-08-25T03:40:17.524Z,23.45
2022-08-25T03:42:45.794Z,23.36
2022-08-25T03:45:14.839Z,23.42
2022-08-25T03:47:45.993Z,23.45
2022-08-25T03:50:14.952Z,23.34
2022-08-25T03:52:42.885Z,23.25
2022-08-25T03:55:13.543Z,23.30
2022-08-25T03:57:40.908Z,23.30
2022-08-25T04:00:10.121Z,23.16
2022-08-25T04:02:41.682Z,22.99
2022-08-25T04:05:09.903Z,22.92
2022-08-25T04:07:37.884Z,23.06
2022-08-25T04:10:10.209Z,23.16
2022-08-25T04:12:38.068Z,23.19
2022-08-25T04:15:07.138Z,23.24
2022-08-25T04:17:37.922Z,23.04
2022-08-25T04:20:06.881Z,22.96
2022-08-25T04:22:34.522Z,22.90
2022-08-25T04:25:06.624Z,22.83
2022-08-25T04:27:34.076Z,22.77
2022-08-25T04:30:01.545Z,22.65
2022-08-25T04:32:28.923Z,22.71
2022-08-25T04:34:56.214Z,22.68
2022-08-25T04:37:23.742Z,22.62
2022-08-25T04:39:51.140Z,22.61
2022-08-25T04:42:18.490Z,22.52
2022-08-25T04:44:45.791Z,22.56
2022-08-25T04:47:13.369Z,22.55
2022-08-25T04:49:40.800Z,22.53
2022-08-25T04:52:14.370Z,22.66
2022-08-25T04:54:42.907Z,22.70
2022-08-25T04:57:10.263Z,23.03
2022-08-25T04:59:37.988Z,23.29
2022-08-25T05:02:06.648Z,23.29
2022-08-25T05:04:35.961Z,23.17
2022-08-25T05:07:04.293Z,22.99
2022-08-25T05:09:32.344Z,22.95
2022-08-25T05:12:02.954Z,22.78
2022-08-25T05:14:32.023Z,22.86
2022-08-25T05:16:59.915Z,22.94
2022-08-25T05:19:27.365Z,22.93
2022-08-25T05:21:55.013Z,23.08
2022-08-25T05:24:26.545Z,23.02
2022-08-25T05:26:53.989Z,22.98
2022-08-25T05:29:21.561Z,23.18
2022-08-25T05:31:50.889Z,23.15
2022-08-25T05:34:19.668Z,23.42
2022-08-25T05:36:48.524Z,23.52
2022-08-25T05:39:16.258Z,23.55
2022-08-25T05:41:43.593Z,23.49
2022-08-25T05:44:12.860Z,23.60
2022-08-25T05:46:40.335Z,23.71
2022-08-25T05:49:07.629Z,23.70
2022-08-25T05:51:34.950Z,23.86
2022-08-25T05:54:03.493Z,23.88
2022-08-25T05:56:31.341Z,23.97
2022-08-25T05:58:58.668Z,24.00
2022-08-25T06:01:47.341Z,24.11
2022-08-25T06:04:18.287Z,24.20
2022-08-25T06:06:45.627Z,24.24
2022-08-25T06:09:12.964Z,24.42
2022-08-25T06:11:41.453Z,24.63
2022-08-25T06:14:09.695Z,24.54
2022-08-25T06:16:39.050Z,24.57
2022-08-25T06:19:08.684Z,24.62
2022-08-25T06:21:39.315Z,24.62
2022-08-25T06:24:12.078Z,24.73
2022-08-25T06:26:42.153Z,24.87
2022-08-25T06:29:09.527Z,25.00
2022-08-25T06:31:36.916Z,25.08
2022-08-25T06:34:04.426Z,25.30
2022-08-25T06:36:32.425Z,25.38
2022-08-25T06:38:59.778Z,25.50
2022-08-25T06:41:36.519Z,25.92
2022-08-25T06:44:05.867Z,26.39
2022-08-25T06:46:36.530Z,27.27
2022-08-25T06:49:07.514Z,28.65
2022-08-25T06:51:38.201Z,30.41
2022-08-25T06:54:07.472Z,31.63
2022-08-25T06:56:36.628Z,32.54
2022-08-25T06:59:05.187Z,32.91
2022-08-25T07:01:32.790Z,32.49
2022-08-25T07:04:02.682Z,31.62
2022-08-25T07:06:32.447Z,31.01
2022-08-25T07:08:59.809Z,30.36
2022-08-25T07:11:28.123Z,29.76
2022-08-25T07:13:55.498Z,29.75
2022-08-25T07:16:24.153Z,29.80
2022-08-25T07:18:57.803Z,29.53
2022-08-25T07:21:33.178Z,29.42
2022-08-25T07:24:03.352Z,29.89
2022-08-25T07:26:37.753Z,29.66
2022-08-25T07:29:10.322Z,29.62
2022-08-25T07:31:37.935Z,29.86
2022-08-25T07:34:25.572Z,29.82
2022-08-25T07:36:54.577Z,30.21
2022-08-25T07:39:23.798Z,30.37
2022-08-25T07:41:52.419Z,30.54
2022-08-25T07:44:22.609Z,30.62
2022-08-25T07:46:51.473Z,30.65
2022-08-25T07:49:23.416Z,30.84
2022-08-25T07:52:05.718Z,31.00
2022-08-25T07:54:37.675Z,31.19
2022-08-25T07:57:08.367Z,31.09
2022-08-25T07:59:40.787Z,31.37
2022-08-25T08:02:17.754Z,31.61
2022-08-25T08:04:50.934Z,31.82
2022-08-25T08:07:42.002Z,31.89
2022-08-25T08:13:01.788Z,31.85
2022-08-25T08:15:30.215Z,31.05
2022-08-25T08:17:59.731Z,31.81
2022-08-25T08:20:28.843Z,32.21
2022-08-25T08:22:56.412Z,32.33
2022-08-25T08:25:26.651Z,32.65
2022-08-25T08:27:56.219Z,32.96
2022-08-25T08:30:25.911Z,32.81
2022-08-25T08:33:11.254Z,32.88
2022-08-25T08:35:42.716Z,33.09
2022-08-25T08:38:17.381Z,33.41
2022-08-25T08:41:24.628Z,33.60
2022-08-25T08:44:01.648Z,33.44
2022-08-25T08:46:43.685Z,33.66
2022-08-25T08:49:26.810Z,33.72
2022-08-25T08:52:00.911Z,33.64
2022-08-25T08:54:34.400Z,33.97
2022-08-25T08:57:11.797Z,34.04
2022-08-25T08:59:53.637Z,34.15
2022-08-25T09:03:06.968Z,33.88
2022-08-25T09:06:07.784Z,33.34
2022-08-25T09:08:37.447Z,33.64
2022-08-25T09:11:30.998Z,33.24
2022-08-25T09:14:19.353Z,34.08
2022-08-25T09:17:00.873Z,34.05
2022-08-25T09:19:36.133Z,34.05
2022-08-25T09:22:35.975Z,34.14
2022-08-25T09:25:53.528Z,34.02
2022-08-25T09:28:31.805Z,34.13
2022-08-25T09:31:03.065Z,34.64
2022-08-25T09:33:34.258Z,34.68
2022-08-25T09:36:06.385Z,34.49
2022-08-25T09:38:37.433Z,34.62
2022-08-25T09:41:07.841Z,34.83
2022-08-25T09:43:40.645Z,34.56
2022-08-25T09:46:26.836Z,35.00
2022-08-25T09:48:57.594Z,35.28
2022-08-25T09:51:42.517Z,35.15
2022-08-25T09:54:13.204Z,34.41
2022-08-25T09:56:49.488Z,34.25
2022-08-25T09:59:34.444Z,34.72
2022-08-25T10:02:25.309Z,34.52
2022-08-25T10:04:53.364Z,35.33
2022-08-25T10:07:39.590Z,35.12
2022-08-25T10:10:21.780Z,34.82
2022-08-25T10:12:51.110Z,34.26
2022-08-25T10:15:29.671Z,34.60
2022-08-25T10:18:27.184Z,34.36
2022-08-25T10:21:02.131Z,35.12
2022-08-25T10:23:33.148Z,35.06
2022-08-25T10:26:08.488Z,34.67
2022-08-25T10:28:47.366Z,34.06
2022-08-25T10:31:29.308Z,34.45
2022-08-25T10:34:13.855Z,34.16
2022-08-25T10:36:57.568Z,33.71
2022-08-25T10:39:40.681Z,34.47
2022-08-25T10:42:29.631Z,34.38
2022-08-25T10:45:33.997Z,34.98
2022-08-25T10:48:44.992Z,35.29
2022-08-25T10:51:27.250Z,35.40
2022-08-25T10:54:04.398Z,34.48
2022-08-25T10:56:43.025Z,34.22
2022-08-25T10:59:31.593Z,34.86
2022-08-25T11:02:28.390Z,34.37
2022-08-25T11:05:08.684Z,34.69
2022-08-25T11:07:48.078Z,35.15
2022-08-25T11:10:20.268Z,35.56
2022-08-25T11:12:56.385Z,35.05
2022-08-25T11:15:33.833Z,35.28
2022-08-25T11:18:14.564Z,35.15
2022-08-25T11:20:49.737Z,34.77
2022-08-25T11:23:33.893Z,34.45
2022-08-25T11:26:11.141Z,34.78
2022-08-25T11:28:51.252Z,35.32
2022-08-25T11:31:21.502Z,35.07
2022-08-25T11:33:51.474Z,34.89
2022-08-25T11:36:33.134Z,34.46
2022-08-25T11:39:12.325Z,34.54
2022-08-25T11:42:26.395Z,34.61
2022-08-25T11:45:26.464Z,35.29
2022-08-25T11:47:54.754Z,34.75
2022-08-25T11:50:31.946Z,34.71
2022-08-25T11:53:23.710Z,34.73
2022-08-25T11:55:58.789Z,34.81
2022-08-25T11:58:31.653Z,34.90
2022-08-25T12:01:01.208Z,35.12
2022-08-25T12:03:34.447Z,35.03
2022-08-25T12:06:26.271Z,35.18
2022-08-25T12:08:59.513Z,34.70
2022-08-25T12:11:50.332Z,35.05
2022-08-25T12:14:27.932Z,35.45
2022-08-25T12:16:55.765Z,35.51
2022-08-25T12:19:54.101Z,34.59
2022-08-25T12:22:26.985Z,34.92
2022-08-25T12:25:06.904Z,35.33
2022-08-25T12:27:46.803Z,35.30
2022-08-25T12:30:27.511Z,35.12
2022-08-25T12:33:10.080Z,35.12
2022-08-25T12:36:03.618Z,34.93
2022-08-25T12:38:49.619Z,35.25
2022-08-25T12:41:26.095Z,35.23
2022-08-25T12:44:08.864Z,35.12
2022-08-25T12:46:39.378Z,35.44
2022-08-25T12:49:31.557Z,34.89
2022-08-25T12:52:06.007Z,34.88
2022-08-25T12:54:47.601Z,35.18
2022-08-25T12:57:18.134Z,35.23
2022-08-25T12:59:59.658Z,35.42
2022-08-25T13:02:27.817Z,35.24
2022-08-25T13:05:05.063Z,34.89
2022-08-25T13:07:38.261Z,34.68
2022-08-25T13:10:27.036Z,34.82
2022-08-25T13:13:25.160Z,35.01
2022-08-25T13:16:08.099Z,35.27
2022-08-25T13:18:38.008Z,35.31
2022-08-25T13:21:20.673Z,35.02
2022-08-25T13:23:51.475Z,35.21
2022-08-25T13:26:25.553Z,35.21
2022-08-25T13:28:55.654Z,35.09
2022-08-25T13:31:27.979Z,35.13
2022-08-25T13:34:02.317Z,35.07
2022-08-25T13:36:55.428Z,35.34
2022-08-25T13:39:54.994Z,34.68
2022-08-25T13:42:17.109Z,34.36
2022-08-25T13:44:52.339Z,34.67
2022-08-25T13:47:43.634Z,34.52
2022-08-25T13:50:19.895Z,35.03
2022-08-25T13:52:51.218Z,35.18
2022-08-25T13:55:27.461Z,34.85
2022-08-25T13:57:58.517Z,34.50
2022-08-25T14:00:32.531Z,34.45
2022-08-25T14:03:03.476Z,34.60
2022-08-25T14:05:42.724Z,34.65
2022-08-25T14:08:33.142Z,34.36
2022-08-25T14:11:16.408Z,34.46
2022-08-25T14:13:45.391Z,34.31
2022-08-25T14:16:20.105Z,34.32
2022-08-25T14:18:52.073Z,34.36
2022-08-25T14:21:22.996Z,34.28
2022-08-25T14:23:51.997Z,34.32
2022-08-25T14:26:19.939Z,34.25
2022-08-25T14:28:47.407Z,33.98
2022-08-25T14:31:23.753Z,34.07
2022-08-25T14:34:03.715Z,33.98
2022-08-25T14:36:33.948Z,34.24
2022-08-25T14:39:05.929Z,34.10
2022-08-25T14:41:38.869Z,33.88
2022-08-25T14:44:07.001Z,33.78
2022-08-25T14:46:37.342Z,33.62
2022-08-25T14:49:08.436Z,33.69
2022-08-25T14:51:38.090Z,33.58
2022-08-25T14:54:09.894Z,33.99
2022-08-25T14:56:39.032Z,33.80
2022-08-25T14:59:10.620Z,33.63
2022-08-25T15:01:38.030Z,33.55
2022-08-25T15:04:13.061Z,33.32
2022-08-25T15:06:45.657Z,33.37
2022-08-25T15:09:16.723Z,33.57
2022-08-25T15:11:50.570Z,33.49
2022-08-25T15:14:29.131Z,33.29
2022-08-25T15:17:02.288Z,33.46
2022-08-25T15:19:29.831Z,33.55
2022-08-25T15:21:58.069Z,33.44
2022-08-25T15:24:28.294Z,33.20
2022-08-25T15:26:58.640Z,33.17
2022-08-25T15:29:29.755Z,33.17
2022-08-25T15:31:58.749Z,33.02
2022-08-25T15:34:26.589Z,32.86
2022-08-25T15:36:54.066Z,32.87
2022-08-25T15:39:21.618Z,32.99
2022-08-25T15:41:52.417Z,33.03
2022-08-25T15:44:20.460Z,32.80
2022-08-25T15:46:49.805Z,32.84
2022-08-25T15:49:23.188Z,33.00
2022-08-25T15:51:55.007Z,32.71
2022-08-25T15:54:26.721Z,32.47
2022-08-25T15:56:56.475Z,32.53
2022-08-25T15:59:26.097Z,32.51
2022-08-25T16:01:55.687Z,32.42
2022-08-25T16:04:25.021Z,32.36
2022-08-25T16:06:53.340Z,32.43
2022-08-25T16:09:22.808Z,32.40
2022-08-25T16:11:55.773Z,32.42
2022-08-25T16:14:25.399Z,32.44
2022-08-25T16:16:52.842Z,32.58
2022-08-25T16:19:20.182Z,32.29
2022-08-25T16:21:47.995Z,32.50
2022-08-25T16:24:15.418Z,32.48
2022-08-25T16:26:48.453Z,32.24
2022-08-25T16:29:17.268Z,31.99
2022-08-25T16:31:53.535Z,31.91
2022-08-25T16:34:24.478Z,31.95
2022-08-25T16:36:53.321Z,31.98
2022-08-25T16:39:22.151Z,32.02
2022-08-25T16:41:52.229Z,31.94
2022-08-25T16:44:22.851Z,32.03
2022-08-25T16:46:54.293Z,31.88
2022-08-25T16:49:24.352Z,31.93
2022-08-25T16:51:57.220Z,32.10
2022-08-25T16:54:45.008Z,31.98
2022-08-25T16:57:13.573Z,31.82
2022-08-25T16:59:42.502Z,31.57
2022-08-25T17:02:12.069Z,31.75
2022-08-25T17:04:40.711Z,31.79
2022-08-25T17:07:08.273Z,31.88
2022-08-25T17:09:36.131Z,31.66
2022-08-25T17:12:05.093Z,31.48
2022-08-25T17:14:32.980Z,31.34
2022-08-25T17:17:00.965Z,31.25
2022-08-25T17:19:28.375Z,31.29
2022-08-25T17:21:55.880Z,31.31
2022-08-25T17:24:29.214Z,31.37
2022-08-25T17:26:57.843Z,31.35
2022-08-25T17:29:25.973Z,31.16
2022-08-25T17:31:53.862Z,31.18
2022-08-25T17:34:21.406Z,31.07
2022-08-25T17:36:51.396Z,30.98
2022-08-25T17:39:19.878Z,30.91
2022-08-25T17:41:50.881Z,30.84
2022-08-25T17:44:19.489Z,30.66
2022-08-25T17:46:48.006Z,30.59
2022-08-25T17:49:17.109Z,30.55
2022-08-25T17:51:45.101Z,30.49
2022-08-25T17:54:13.782Z,30.52
2022-08-25T17:56:41.169Z,30.36
2022-08-25T17:59:09.546Z,30.20
2022-08-25T18:01:40.442Z,30.09
2022-08-25T18:04:17.161Z,29.92
2022-08-25T18:06:46.662Z,29.76
2022-08-25T18:09:15.526Z,29.72
2022-08-25T18:11:42.860Z,29.65
2022-08-25T18:14:12.625Z,29.59
2022-08-25T18:16:40.812Z,29.53
2022-08-25T18:19:10.827Z,29.43
2022-08-25T18:21:38.911Z,29.35
2022-08-25T18:24:07.987Z,29.33
2022-08-25T18:26:35.570Z,29.27
2022-08-25T18:29:03.709Z,29.18
2022-08-25T18:31:31.623Z,29.04
2022-08-25T18:33:59.668Z,29.01
2022-08-25T18:36:27.037Z,28.93
2022-08-25T18:39:13.771Z,28.95
2022-08-25T18:41:42.769Z,28.96
2022-08-25T18:44:12.448Z,28.91
2022-08-25T18:46:43.437Z,29.01
2022-08-25T18:49:15.961Z,28.97
2022-08-25T18:51:47.589Z,28.98
2022-08-25T18:54:23.540Z,28.99
2022-08-25T18:56:54.563Z,28.90
2022-08-25T18:59:23.321Z,28.88
2022-08-25T19:01:53.757Z,28.89
2022-08-25T19:04:28.710Z,28.86
2022-08-25T19:07:01.142Z,28.81
2022-08-25T19:09:29.266Z,28.85
2022-08-25T19:11:58.674Z,28.79
2022-08-25T19:14:26.799Z,28.78
2022-08-25T19:16:54.683Z,28.81
2022-08-25T19:19:23.994Z,28.84
2022-08-25T19:21:51.683Z,28.82
2022-08-25T19:24:19.852Z,28.83
2022-08-25T19:26:49.598Z,28.85
2022-08-25T19:29:20.099Z,28.78
2022-08-25T19:31:48.203Z,28.57
2022-08-25T19:34:22.031Z,28.63
2022-08-25T19:36:50.922Z,28.75
2022-08-25T19:39:18.505Z,28.88
2022-08-25T19:41:46.331Z,28.84
2022-08-25T19:44:14.481Z,28.75
2022-08-25T19:46:43.481Z,28.61
2022-08-25T19:49:15.142Z,28.59
2022-08-25T19:51:50.516Z,28.47
2022-08-25T19:54:26.253Z,28.45
2022-08-25T19:56:55.577Z,28.46
2022-08-25T19:59:40.775Z,28.53
2022-08-25T20:02:25.089Z,28.57
2022-08-25T20:04:56.117Z,28.46
2022-08-25T20:07:26.325Z,28.30
2022-08-25T20:09:55.654Z,28.31
2022-08-25T20:12:24.685Z,28.26
2022-08-25T20:14:53.603Z,28.21
2022-08-25T20:17:23.847Z,28.20
2022-08-25T20:19:57.816Z,28.15
2022-08-25T20:22:31.819Z,28.17
2022-08-25T20:25:02.954Z,28.19
2022-08-25T20:27:38.958Z,28.11
2022-08-25T20:30:10.606Z,28.06
2022-08-25T20:32:38.016Z,28.13
2022-08-25T20:35:09.505Z,28.12
2022-08-25T20:37:41.797Z,28.00
2022-08-25T20:40:11.182Z,27.94
2022-08-25T20:42:40.557Z,27.78
2022-08-25T20:45:09.391Z,28.02
2022-08-25T20:47:36.921Z,27.90
2022-08-25T20:50:06.941Z,27.90
2022-08-25T20:52:34.660Z,27.83
2022-08-25T20:55:02.357Z,27.65
2022-08-25T20:57:30.378Z,27.63
2022-08-25T20:59:58.288Z,27.46
2022-08-25T21:02:27.289Z,27.35
2022-08-25T21:04:57.076Z,27.39
2022-08-25T21:07:25.358Z,27.42
2022-08-25T21:09:53.399Z,27.43
2022-08-25T21:12:21.672Z,27.56
2022-08-25T21:14:49.119Z,27.53
2022-08-25T21:17:19.350Z,27.52
2022-08-25T21:22:16.171Z,27.51
2022-08-25T21:24:43.596Z,27.46
2022-08-25T21:27:12.054Z,27.35
2022-08-25T21:29:44.741Z,27.34
2022-08-25T21:32:22.575Z,27.30
2022-08-25T21:34:54.628Z,27.29
2022-08-25T21:37:22.223Z,27.06
2022-08-25T21:39:50.410Z,27.11
2022-08-25T21:42:19.803Z,27.07
2022-08-25T21:44:47.180Z,27.04
2022-08-25T21:47:14.457Z,27.12
2022-08-25T21:49:42.241Z,27.14
2022-08-25T21:52:09.803Z,26.94
2022-08-25T21:54:37.758Z,26.91
2022-08-25T21:57:06.097Z,27.01
2022-08-25T21:59:37.143Z,26.97
2022-08-25T22:02:10.419Z,27.05
2022-08-25T22:04:39.388Z,27.09
2022-08-25T22:07:07.639Z,27.16
2022-08-25T22:09:35.730Z,27.18
2022-08-25T22:12:04.168Z,27.11
2022-08-25T22:14:32.385Z,27.01
2022-08-25T22:17:00.578Z,26.83
2022-08-25T22:19:28.347Z,26.65
2022-08-25T22:21:56.479Z,26.72
2022-08-25T22:24:28.182Z,26.76
2022-08-25T22:26:56.556Z,26.60
2022-08-25T22:29:25.284Z,26.65
2022-08-25T22:31:59.917Z,26.59
2022-08-25T22:34:34.707Z,26.61
2022-08-25T22:37:07.508Z,26.75
2022-08-25T22:39:36.034Z,26.79
2022-08-25T22:42:06.121Z,26.93
2022-08-25T22:44:33.579Z,26.92
2022-08-25T22:47:00.935Z,26.77
2022-08-25T22:49:29.449Z,26.67
2022-08-25T22:51:57.521Z,26.54
2022-08-25T22:54:25.590Z,26.53
2022-08-25T22:56:53.663Z,26.58
2022-08-25T22:59:22.510Z,26.63
2022-08-25T23:01:52.348Z,26.55
2022-08-25T23:04:19.975Z,26.41
2022-08-25T23:06:47.752Z,26.40
2022-08-25T23:09:15.385Z,26.25
2022-08-25T23:11:43.443Z,26.16
2022-08-25T23:14:11.962Z,26.09
2022-08-25T23:16:41.823Z,26.16
2022-08-25T23:19:14.014Z,26.21
2022-08-25T23:22:01.699Z,26.30
2022-08-25T23:24:30.781Z,26.32
2022-08-25T23:26:59.893Z,26.32
2022-08-25T23:29:28.163Z,26.35
2022-08-25T23:31:56.778Z,26.50
2022-08-25T23:34:25.614Z,26.55
2022-08-25T23:36:53.041Z,26.40
2022-08-25T23:39:21.745Z,26.27
2022-08-25T23:41:50.498Z,26.35
2022-08-25T23:44:19.656Z,26.26
2022-08-25T23:46:48.140Z,26.16
2022-08-25T23:49:18.434Z,26.02
2022-08-25T23:51:50.337Z,25.91
2022-08-25T23:54:21.182Z,25.92
2022-08-25T23:56:51.631Z,25.92
2022-08-25T23:59:24.446Z,25.83
